West Palm Beach, FL

12:01 AM EDT on July 31, 2015 (GMT -0400)
PCC Golf - Zaretsky Law Group - West Palm Beach | | Change Station
CLOSE
Current Station
Personal Weather Station
Location: West Palm Beach, FL
Elevation: 60 ft
Nearby Weather Stations

Elev 60 ft 26.73 °N, 80.08 °W | Updated 2 minutes ago

Mostly Cloudy
Mostly Cloudy
79.0 °F
Feels Like 83 °F
N
0.0
Wind Variable Wind from SE
Gusts 0.0 mph

Today
High -- | Low -- °F
--% Chance of Precip.
Yesterday
High -- | Low -- °F
Precip. -- in
6:44 AM 8:08 PM
Full, 100% visible
Pressure 30.04 in
Visibility 10.0 miles
Clouds Few 16000 ft
Mostly Cloudy 23000 ft
Heat Index 83 °F
Dew Point 74 °F
Humidity 84%
Rainfall in
Snow Depth Not available.
UV 0 out of 12
Pollen 1.10 out of 12
Air Quality Not available.
Flu Activity Not available.
METAR KPBI 310353Z 13005KT 10SM FEW160 BKN230 27/22 A3004 RMK AO2 SLP172 T02670217

More Conditions Fewer Conditions

Pressure 30.04 in
Visibility 10.0 miles
Clouds Few 16000 ft
Mostly Cloudy 23000 ft
Heat Index 83 °F
Dew Point 74 °F
Humidity 84%
Rainfall in
Snow Depth Not available.
UV 0 out of 12
Pollen 1.10 out of 12
Air Quality Not available.
Flu Activity Not available.
METAR KPBI 310353Z 13005KT 10SM FEW160 BKN230 27/22 A3004 RMK AO2 SLP172 T02670217

More Conditions Fewer Conditions

10-Day Weather Forecast

×

Almanac

Astronomy

Jul. 31, 2015 Rise Set
Actual Time
Civil Twilight
Nautical Twilight
Astronomical Twilight
Moon
Length of Visible Light
Length of Day
Tomorrow will be .
, % of the Moon is Illuminated

Today's Extremes

State Highs State Lows

Community

WunderPhotos

Upload Photos

1,842,602 photos uploaded!

WunderBlogs® & News

Nearby

Air Quality

  Air Quality AQ Index Pollutant
Not available.

Snow Depth

Station Depth Elevation

Earthquake Activity

City Distance Mag. Time & Date
Minimum magnitude displayed is 2.5.

Coastal Water Temperatures

Place Temperature

Stations

Nearby Weather Stations

Station Location Temp. Windchill Dew Point Humidity Wind Precip. Elev Updated Type